createdAt,value
2022-10-01T00:01:15.592Z,16.79
2022-10-01T00:03:43.641Z,16.78
2022-10-01T00:06:17.886Z,16.78
2022-10-01T00:08:51.937Z,16.75
2022-10-01T00:11:24.825Z,16.75
2022-10-01T00:13:55.989Z,16.74
2022-10-01T00:16:27.581Z,16.71
2022-10-01T00:18:55.369Z,16.70
2022-10-01T00:21:35.398Z,16.68
2022-10-01T00:24:04.942Z,16.66
2022-10-01T00:26:34.473Z,16.66
2022-10-01T00:29:04.708Z,16.67
2022-10-01T00:31:32.210Z,16.68
2022-10-01T00:34:00.991Z,16.70
2022-10-01T00:36:27.864Z,16.69
2022-10-01T00:39:00.670Z,16.70
2022-10-01T00:41:33.612Z,16.67
2022-10-01T00:44:04.201Z,16.63
2022-10-01T00:46:43.468Z,16.61
2022-10-01T00:49:19.193Z,16.58
2022-10-01T00:51:50.983Z,16.57
2022-10-01T00:54:24.244Z,16.57
2022-10-01T00:56:55.419Z,16.57
2022-10-01T00:59:22.473Z,16.56
2022-10-01T01:01:49.459Z,16.55
2022-10-01T01:04:19.289Z,16.52
2022-10-01T01:06:57.934Z,16.51
2022-10-01T01:09:30.340Z,16.50
2022-10-01T01:12:29.236Z,16.49
2022-10-01T01:15:18.344Z,16.45
2022-10-01T01:18:09.821Z,16.43
2022-10-01T01:21:28.002Z,16.43
2022-10-01T01:24:03.987Z,16.43
2022-10-01T01:26:49.446Z,16.42
2022-10-01T01:29:39.938Z,16.39
2022-10-01T01:32:15.055Z,16.35
2022-10-01T01:34:47.368Z,16.33
2022-10-01T01:37:19.479Z,16.33
2022-10-01T01:39:51.199Z,16.32
2022-10-01T01:42:29.333Z,16.32
2022-10-01T01:45:00.228Z,16.31
2022-10-01T01:47:30.649Z,16.29
2022-10-01T01:49:58.679Z,16.29
2022-10-01T01:52:25.648Z,16.28
2022-10-01T01:54:52.612Z,16.28
2022-10-01T01:57:21.279Z,16.29
2022-10-01T01:59:48.074Z,16.27
2022-10-01T02:02:23.711Z,16.25
2022-10-01T02:05:19.070Z,16.19
2022-10-01T02:08:16.873Z,16.19
2022-10-01T02:10:43.576Z,16.17
2022-10-01T02:13:25.786Z,16.17
2022-10-01T02:16:30.701Z,16.12
2022-10-01T02:19:18.870Z,16.03
2022-10-01T02:21:51.777Z,16.05
2022-10-01T02:24:57.843Z,16.04
2022-10-01T02:27:30.617Z,16.02
2022-10-01T02:29:59.370Z,16.04
2022-10-01T02:32:30.534Z,16.01
2022-10-01T02:34:59.143Z,16.02
2022-10-01T02:37:27.281Z,16.03
2022-10-01T02:39:56.784Z,15.96
2022-10-01T02:42:27.390Z,15.93
2022-10-01T02:44:57.207Z,15.92
2022-10-01T02:47:34.396Z,15.89
2022-10-01T02:50:03.005Z,15.91
2022-10-01T02:52:54.594Z,15.94
2022-10-01T02:55:35.877Z,15.93
2022-10-01T02:58:02.715Z,15.92
2022-10-01T03:00:30.201Z,15.91
2022-10-01T03:02:57.073Z,15.90
2022-10-01T03:05:23.914Z,15.88
2022-10-01T03:07:50.704Z,15.88
2022-10-01T03:10:17.738Z,15.89
2022-10-01T03:12:46.788Z,15.85
2022-10-01T03:15:16.005Z,15.83
2022-10-01T03:17:43.003Z,15.80
2022-10-01T03:20:11.028Z,15.77
2022-10-01T03:22:38.000Z,15.74
2022-10-01T03:25:05.123Z,15.75
2022-10-01T03:27:31.964Z,15.76
2022-10-01T03:29:58.744Z,15.75
2022-10-01T03:32:25.531Z,15.74
2022-10-01T03:34:52.410Z,15.72
2022-10-01T03:37:19.243Z,15.71
2022-10-01T03:39:46.009Z,15.69
2022-10-01T03:42:12.796Z,15.68
2022-10-01T03:44:39.633Z,15.72
2022-10-01T03:47:06.581Z,15.71
2022-10-01T03:49:34.509Z,15.68
2022-10-01T03:52:02.492Z,15.65
2022-10-01T03:54:31.588Z,15.60
2022-10-01T03:56:58.797Z,15.60
2022-10-01T03:59:27.362Z,15.59
2022-10-01T04:01:54.570Z,15.58
2022-10-01T04:04:21.417Z,15.56
2022-10-01T04:06:48.139Z,15.56
2022-10-01T04:09:14.917Z,15.54
2022-10-01T04:11:41.671Z,15.54
2022-10-01T04:14:09.243Z,15.55
2022-10-01T04:16:36.326Z,15.52
2022-10-01T04:19:04.538Z,15.52
2022-10-01T04:21:31.596Z,15.52
2022-10-01T04:23:59.824Z,15.54
2022-10-01T04:26:27.232Z,15.51
2022-10-01T04:28:53.990Z,15.46
2022-10-01T04:31:26.496Z,15.40
2022-10-01T04:33:55.455Z,15.38
2022-10-01T04:36:22.582Z,15.40
2022-10-01T04:38:56.655Z,15.43
2022-10-01T04:41:26.435Z,15.41
2022-10-01T04:43:53.235Z,15.39
2022-10-01T04:46:20.975Z,15.35
2022-10-01T04:48:49.560Z,15.35
2022-10-01T04:51:17.090Z,15.32
2022-10-01T04:53:43.996Z,15.29
2022-10-01T04:56:10.879Z,15.29
2022-10-01T04:58:38.669Z,15.29
2022-10-01T05:01:08.338Z,15.28
2022-10-01T05:03:35.143Z,15.27
2022-10-01T05:06:02.104Z,15.25
2022-10-01T05:08:28.911Z,15.26
2022-10-01T05:10:55.787Z,15.28
2022-10-01T05:13:22.560Z,15.28
2022-10-01T05:15:52.407Z,15.25
2022-10-01T05:18:19.588Z,15.20
2022-10-01T05:20:53.289Z,15.18
2022-10-01T05:23:20.134Z,15.18
2022-10-01T05:25:47.270Z,15.19
2022-10-01T05:28:17.184Z,15.16
2022-10-01T05:30:56.663Z,15.16
2022-10-01T05:33:23.383Z,15.17
2022-10-01T05:35:50.143Z,15.16
2022-10-01T05:38:16.907Z,15.14
2022-10-01T05:40:51.722Z,15.14
2022-10-01T05:43:18.911Z,15.11
2022-10-01T05:45:45.835Z,15.11
2022-10-01T05:48:13.076Z,15.11
2022-10-01T05:50:40.850Z,15.11
2022-10-01T05:53:10.031Z,15.09
2022-10-01T05:55:36.867Z,15.09
2022-10-01T05:58:10.665Z,15.08
2022-10-01T06:00:39.084Z,15.11
2022-10-01T06:03:06.553Z,15.07
2022-10-01T06:05:34.912Z,15.04
2022-10-01T06:08:04.800Z,15.01
2022-10-01T06:10:31.844Z,14.97
2022-10-01T06:13:02.024Z,14.95
2022-10-01T06:15:30.050Z,14.98
2022-10-01T06:17:56.894Z,15.02
2022-10-01T06:20:24.284Z,15.01
2022-10-01T06:22:56.541Z,15.01
2022-10-01T06:25:24.060Z,15.02
2022-10-01T06:27:56.521Z,15.00
2022-10-01T06:30:27.345Z,15.02
2022-10-01T06:33:06.035Z,15.03
2022-10-01T06:35:34.739Z,15.02
2022-10-01T06:38:02.670Z,15.04
2022-10-01T06:40:32.352Z,14.99
2022-10-01T06:42:59.364Z,15.01
2022-10-01T06:45:27.292Z,15.05
2022-10-01T06:47:59.881Z,15.03
2022-10-01T06:50:26.779Z,15.03
2022-10-01T06:52:53.647Z,15.04
2022-10-01T06:55:31.961Z,15.05
2022-10-01T06:58:04.222Z,15.03
2022-10-01T07:00:33.859Z,15.02
2022-10-01T07:03:01.225Z,15.06
2022-10-01T07:05:28.492Z,15.09
2022-10-01T07:07:55.238Z,15.10
2022-10-01T07:10:23.332Z,15.09
2022-10-01T07:12:51.018Z,15.11
2022-10-01T07:15:20.483Z,15.13
2022-10-01T07:17:49.962Z,15.12
2022-10-01T07:20:18.139Z,15.14
2022-10-01T07:22:46.038Z,15.16
2022-10-01T07:25:13.370Z,15.20
2022-10-01T07:27:40.580Z,15.24
2022-10-01T07:30:08.165Z,15.24
2022-10-01T07:32:35.557Z,15.25
2022-10-01T07:35:02.538Z,15.30
2022-10-01T07:37:29.387Z,15.29
2022-10-01T07:39:56.130Z,15.29
2022-10-01T07:42:22.892Z,15.31
2022-10-01T07:44:49.634Z,15.31
2022-10-01T07:47:16.696Z,15.31
2022-10-01T07:49:43.391Z,15.37
2022-10-01T07:52:13.322Z,15.40
2022-10-01T07:54:40.505Z,15.40
2022-10-01T07:57:07.235Z,15.43
2022-10-01T07:59:34.002Z,15.44
2022-10-01T08:02:01.205Z,15.49
2022-10-01T08:04:46.135Z,15.54
2022-10-01T08:07:12.956Z,15.60
2022-10-01T08:09:40.284Z,15.66
2022-10-01T08:12:07.074Z,15.69
2022-10-01T08:14:33.853Z,15.69
2022-10-01T08:17:00.694Z,15.74
2022-10-01T08:19:27.507Z,15.77
2022-10-01T08:22:05.765Z,15.82
2022-10-01T08:24:34.750Z,15.85
2022-10-01T08:27:01.536Z,15.90
2022-10-01T08:29:28.471Z,15.90
2022-10-01T08:31:56.378Z,15.91
2022-10-01T08:34:23.668Z,15.94
2022-10-01T08:36:54.740Z,15.96
2022-10-01T08:39:21.864Z,15.97
2022-10-01T08:42:08.395Z,16.01
2022-10-01T08:44:44.099Z,16.05
2022-10-01T08:47:17.712Z,16.06
2022-10-01T08:49:51.871Z,16.10
2022-10-01T08:52:26.212Z,16.16
2022-10-01T08:55:00.513Z,16.20
2022-10-01T08:57:31.125Z,16.24
2022-10-01T09:00:04.154Z,16.27
2022-10-01T09:02:34.252Z,16.30
2022-10-01T09:05:31.157Z,16.31
2022-10-01T09:08:43.885Z,16.31
2022-10-01T09:11:29.625Z,16.32
2022-10-01T09:14:05.048Z,16.34
2022-10-01T09:16:45.778Z,16.38
2022-10-01T09:19:47.681Z,16.44
2022-10-01T09:23:03.139Z,16.48
2022-10-01T09:25:31.214Z,16.50
2022-10-01T09:28:19.700Z,16.56
2022-10-01T09:31:11.378Z,16.60
2022-10-01T09:33:42.499Z,16.63
2022-10-01T09:36:18.883Z,16.67
2022-10-01T09:38:52.798Z,16.75
2022-10-01T09:41:20.331Z,16.84
2022-10-01T09:43:48.027Z,16.90
2022-10-01T09:46:17.629Z,16.94
2022-10-01T09:48:49.577Z,16.97
2022-10-01T09:51:40.404Z,17.01
2022-10-01T09:54:30.020Z,17.03
2022-10-01T09:57:40.759Z,17.04
2022-10-01T10:00:18.178Z,17.09
2022-10-01T10:02:49.299Z,17.09
2022-10-01T10:05:19.576Z,17.16
2022-10-01T10:07:50.336Z,17.21
2022-10-01T10:10:24.794Z,17.24
2022-10-01T10:12:58.930Z,17.27
2022-10-01T10:15:26.567Z,17.34
2022-10-01T10:18:09.234Z,17.40
2022-10-01T10:20:59.388Z,17.46
2022-10-01T10:23:29.234Z,17.47
2022-10-01T10:26:07.484Z,17.50
2022-10-01T10:28:46.372Z,17.53
2022-10-01T10:31:28.222Z,17.58
2022-10-01T10:34:08.916Z,17.63
2022-10-01T10:36:38.040Z,17.68
2022-10-01T10:39:15.309Z,17.71
2022-10-01T10:41:46.258Z,17.75
2022-10-01T10:44:19.840Z,17.80
2022-10-01T10:46:48.129Z,17.84
2022-10-01T10:49:31.443Z,17.95
2022-10-01T10:52:01.175Z,17.97
2022-10-01T10:54:40.813Z,17.95
2022-10-01T10:57:21.616Z,17.97
2022-10-01T11:00:02.054Z,18.01
2022-10-01T11:02:31.590Z,18.01
2022-10-01T11:05:16.806Z,17.99
2022-10-01T11:07:45.548Z,18.01
2022-10-01T11:10:27.622Z,18.04
2022-10-01T11:13:18.765Z,18.10
2022-10-01T11:16:14.112Z,18.14
2022-10-01T11:19:07.908Z,18.18
2022-10-01T11:21:41.999Z,18.23
2022-10-01T11:24:34.018Z,18.26
2022-10-01T11:27:15.784Z,18.32
2022-10-01T11:30:15.368Z,18.36
2022-10-01T11:32:46.334Z,18.41
2022-10-01T11:35:19.691Z,18.47
2022-10-01T11:37:54.902Z,18.48
2022-10-01T11:40:27.639Z,18.49
2022-10-01T11:42:58.022Z,18.52
2022-10-01T11:45:32.283Z,18.50
2022-10-01T11:48:06.933Z,18.57
2022-10-01T11:53:31.233Z,18.53
2022-10-01T11:56:25.760Z,18.52
2022-10-01T11:59:04.442Z,18.51
2022-10-01T12:01:38.668Z,18.49
2022-10-01T12:04:06.917Z,18.48
2022-10-01T12:06:41.320Z,18.51
2022-10-01T12:09:16.989Z,18.54
2022-10-01T12:11:54.675Z,18.54
2022-10-01T12:14:31.643Z,18.57
2022-10-01T12:17:08.865Z,18.60
2022-10-01T12:19:39.197Z,18.65
2022-10-01T12:22:27.074Z,18.74
2022-10-01T12:24:54.586Z,18.78
2022-10-01T12:27:41.870Z,18.87
2022-10-01T12:30:12.849Z,18.97
2022-10-01T12:33:16.874Z,19.04
2022-10-01T12:35:57.566Z,19.10
2022-10-01T12:38:57.663Z,19.17
2022-10-01T12:41:53.589Z,19.22
2022-10-01T12:44:20.416Z,19.21
2022-10-01T12:46:56.366Z,19.21
2022-10-01T12:49:31.025Z,19.21
2022-10-01T12:52:15.670Z,19.16
2022-10-01T12:55:00.521Z,19.14
2022-10-01T12:57:37.071Z,19.11
2022-10-01T13:00:03.825Z,19.11
2022-10-01T13:02:45.712Z,19.12
2022-10-01T13:05:27.932Z,19.14
2022-10-01T13:07:56.727Z,19.15
2022-10-01T13:10:48.605Z,19.16
2022-10-01T13:13:22.311Z,19.18
2022-10-01T13:15:54.569Z,19.15
2022-10-01T13:18:40.477Z,19.14
2022-10-01T13:21:32.482Z,19.13
2022-10-01T13:24:14.570Z,19.10
2022-10-01T13:27:04.972Z,19.11
2022-10-01T13:29:37.663Z,19.08
2022-10-01T13:32:26.142Z,19.12
2022-10-01T13:34:54.253Z,19.11
2022-10-01T13:37:30.005Z,19.13
2022-10-01T13:40:00.912Z,19.12
2022-10-01T13:42:29.390Z,19.10
2022-10-01T13:45:06.849Z,19.11
2022-10-01T13:47:41.363Z,19.13
2022-10-01T13:50:24.098Z,19.14
2022-10-01T13:52:52.196Z,19.15
2022-10-01T13:55:30.631Z,19.15
2022-10-01T13:58:21.518Z,19.15
2022-10-01T14:00:58.112Z,19.14
2022-10-01T14:03:36.369Z,19.15
2022-10-01T14:06:06.971Z,19.15
2022-10-01T14:08:46.507Z,19.12
2022-10-01T14:11:35.668Z,19.08
2022-10-01T14:14:53.239Z,19.07
2022-10-01T14:17:23.137Z,19.09
2022-10-01T14:19:51.146Z,19.12
2022-10-01T14:22:55.159Z,19.15
2022-10-01T14:25:40.331Z,19.16
2022-10-01T14:28:18.023Z,19.12
2022-10-01T14:31:02.024Z,19.14
2022-10-01T14:33:34.739Z,19.13
2022-10-01T14:36:37.714Z,19.22
2022-10-01T14:39:15.415Z,19.19
2022-10-01T14:41:43.267Z,19.16
2022-10-01T14:44:36.564Z,19.14
2022-10-01T14:47:23.114Z,19.09
2022-10-01T14:49:51.488Z,19.07
2022-10-01T14:52:24.469Z,19.03
2022-10-01T14:54:59.306Z,18.98
2022-10-01T14:57:29.050Z,18.98
2022-10-01T14:59:57.862Z,18.98
2022-10-01T15:02:26.216Z,19.02
2022-10-01T15:04:56.476Z,19.04
2022-10-01T15:07:25.995Z,19.05
2022-10-01T15:09:52.835Z,19.08
2022-10-01T15:12:23.895Z,19.11
2022-10-01T15:14:54.223Z,19.13
2022-10-01T15:17:27.261Z,19.13
2022-10-01T15:19:56.609Z,19.16
2022-10-01T15:22:28.283Z,19.15
2022-10-01T15:24:59.794Z,19.16
2022-10-01T15:27:27.339Z,19.19
2022-10-01T15:29:57.307Z,19.22
2022-10-01T15:32:25.359Z,19.24
2022-10-01T15:34:56.571Z,19.27
2022-10-01T15:37:33.378Z,19.29
2022-10-01T15:40:01.293Z,19.32
2022-10-01T15:42:33.055Z,19.35
2022-10-01T15:45:08.952Z,19.39
2022-10-01T15:47:40.115Z,19.41
2022-10-01T15:50:12.710Z,19.40
2022-10-01T15:52:54.543Z,19.42
2022-10-01T15:55:27.694Z,19.47
2022-10-01T15:58:08.943Z,19.49
2022-10-01T16:01:00.527Z,19.49
2022-10-01T16:03:47.796Z,19.48
2022-10-01T16:06:34.128Z,19.48
2022-10-01T16:09:12.561Z,19.46
2022-10-01T16:11:51.330Z,19.45
2022-10-01T16:14:28.403Z,19.42
2022-10-01T16:17:17.976Z,19.44
2022-10-01T16:19:45.904Z,19.41
2022-10-01T16:22:26.510Z,19.38
2022-10-01T16:25:19.788Z,19.35
2022-10-01T16:27:49.942Z,19.29
2022-10-01T16:30:22.666Z,19.30
2022-10-01T16:32:49.576Z,19.24
2022-10-01T16:35:26.401Z,19.23
2022-10-01T16:37:56.239Z,19.25
2022-10-01T16:40:27.177Z,19.26
2022-10-01T16:42:54.506Z,19.25
2022-10-01T16:45:27.904Z,19.23
2022-10-01T16:47:59.444Z,19.19
2022-10-01T16:50:26.694Z,19.18
2022-10-01T16:52:56.867Z,19.13
2022-10-01T16:55:32.631Z,19.13
2022-10-01T16:57:59.390Z,19.12
2022-10-01T17:00:28.276Z,19.08
2022-10-01T17:02:56.653Z,19.07
2022-10-01T17:05:33.643Z,19.05
2022-10-01T17:08:03.815Z,19.04
2022-10-01T17:10:35.999Z,19.02
2022-10-01T17:13:03.802Z,18.97
2022-10-01T17:15:31.390Z,18.98
2022-10-01T17:17:59.530Z,18.96
2022-10-01T17:20:29.290Z,18.93
2022-10-01T17:22:57.283Z,18.94
2022-10-01T17:25:34.512Z,18.91
2022-10-01T17:28:03.696Z,18.85
2022-10-01T17:30:31.369Z,18.84
2022-10-01T17:33:02.412Z,18.81
2022-10-01T17:35:30.538Z,18.78
2022-10-01T17:37:58.473Z,18.75
2022-10-01T17:40:25.425Z,18.72
2022-10-01T17:42:52.216Z,18.68
2022-10-01T17:45:19.089Z,18.66
2022-10-01T17:47:47.359Z,18.64
2022-10-01T17:50:15.491Z,18.65
2022-10-01T17:52:42.707Z,18.63
2022-10-01T17:55:12.321Z,18.63
2022-10-01T17:57:39.393Z,18.62
2022-10-01T18:00:06.879Z,18.60
2022-10-01T18:02:42.585Z,18.58
2022-10-01T18:05:15.024Z,18.58
2022-10-01T18:07:42.894Z,18.56
2022-10-01T18:10:12.733Z,18.55
2022-10-01T18:12:40.120Z,18.54
2022-10-01T18:15:07.728Z,18.51
2022-10-01T18:17:36.681Z,18.44
2022-10-01T18:20:05.806Z,18.43
2022-10-01T18:22:32.675Z,18.42
2022-10-01T18:24:59.529Z,18.39
2022-10-01T18:27:26.389Z,18.39
2022-10-01T18:29:53.874Z,18.38
2022-10-01T18:32:26.428Z,18.37
2022-10-01T18:35:02.207Z,18.39
2022-10-01T18:37:37.755Z,18.39
2022-10-01T18:40:43.214Z,18.38
2022-10-01T18:43:25.609Z,18.39
2022-10-01T18:46:19.024Z,18.35
2022-10-01T18:49:06.258Z,18.34
2022-10-01T18:52:44.547Z,18.32
2022-10-01T18:55:37.707Z,18.26
2022-10-01T18:58:15.654Z,18.24
2022-10-01T19:01:01.865Z,18.22
2022-10-01T19:04:00.426Z,18.21
2022-10-01T19:06:45.865Z,18.21
2022-10-01T19:09:32.899Z,18.23
2022-10-01T19:12:10.920Z,18.22
2022-10-01T19:15:03.436Z,18.21
2022-10-01T19:17:43.064Z,18.19
2022-10-01T19:20:28.070Z,18.15
2022-10-01T19:23:04.036Z,18.14
2022-10-01T19:25:36.350Z,18.15
2022-10-01T19:28:06.066Z,18.16
2022-10-01T19:30:53.448Z,18.14
2022-10-01T19:33:21.934Z,18.11
2022-10-01T19:35:57.379Z,18.11
2022-10-01T19:38:33.210Z,18.08
2022-10-01T19:41:12.405Z,18.10
2022-10-01T19:43:52.988Z,18.09
2022-10-01T19:46:28.994Z,18.08
2022-10-01T19:49:05.196Z,18.08
2022-10-01T19:51:55.687Z,18.12
2022-10-01T19:54:32.966Z,18.15
2022-10-01T19:57:09.911Z,18.18
2022-10-01T19:59:36.649Z,18.16
2022-10-01T20:02:21.341Z,18.13
2022-10-01T20:05:12.775Z,18.09
2022-10-01T20:08:01.519Z,18.03
2022-10-01T20:11:01.448Z,17.98
2022-10-01T20:14:05.912Z,17.96
2022-10-01T20:16:47.497Z,17.92
2022-10-01T20:19:32.591Z,17.86
2022-10-01T20:22:22.405Z,17.84
2022-10-01T20:25:00.244Z,17.84
2022-10-01T20:27:49.190Z,17.82
2022-10-01T20:30:20.976Z,17.77
2022-10-01T20:33:16.657Z,17.75
2022-10-01T20:35:49.162Z,17.73
2022-10-01T20:38:21.603Z,17.69
2022-10-01T20:41:06.432Z,17.69
2022-10-01T20:43:44.708Z,17.69
2022-10-01T20:46:32.445Z,17.68
2022-10-01T20:49:28.253Z,17.67
2022-10-01T20:52:04.677Z,17.70
2022-10-01T20:54:37.571Z,17.70
2022-10-01T20:57:13.212Z,17.68
2022-10-01T20:59:46.149Z,17.69
2022-10-01T21:02:26.633Z,17.70
2022-10-01T21:05:01.923Z,17.69
2022-10-01T21:07:42.623Z,17.69
2022-10-01T21:11:01.005Z,17.70
2022-10-01T21:13:30.553Z,17.68
2022-10-01T21:16:25.309Z,17.71
2022-10-01T21:19:01.390Z,17.72
2022-10-01T21:22:01.648Z,17.73
2022-10-01T21:24:35.194Z,17.69
2022-10-01T21:27:32.914Z,17.67
2022-10-01T21:30:08.496Z,17.66
2022-10-01T21:33:38.059Z,17.64
2022-10-01T21:36:23.616Z,17.64
2022-10-01T21:39:03.542Z,17.65
2022-10-01T21:41:33.182Z,17.65
2022-10-01T21:44:18.150Z,17.63
2022-10-01T21:47:15.533Z,17.62
2022-10-01T21:49:54.600Z,17.62
2022-10-01T21:52:37.450Z,17.60
2022-10-01T21:55:38.351Z,17.61
2022-10-01T21:58:38.764Z,17.57
2022-10-01T22:01:18.820Z,17.60
2022-10-01T22:04:03.975Z,17.59
2022-10-01T22:07:13.005Z,17.60
2022-10-01T22:09:50.296Z,17.60
2022-10-01T22:12:17.414Z,17.57
2022-10-01T22:14:45.672Z,17.56
2022-10-01T22:17:18.326Z,17.53
2022-10-01T22:19:51.236Z,17.50
2022-10-01T22:22:36.677Z,17.47
2022-10-01T22:25:04.693Z,17.48
2022-10-01T22:27:38.921Z,17.47
2022-10-01T22:30:18.757Z,17.46
2022-10-01T22:33:43.088Z,17.42
2022-10-01T22:36:46.760Z,17.40
2022-10-01T22:39:26.686Z,17.40
2022-10-01T22:41:57.725Z,17.42
2022-10-01T22:44:24.652Z,17.42
2022-10-01T22:47:19.880Z,17.40
2022-10-01T22:50:04.571Z,17.39
2022-10-01T22:52:34.066Z,17.42
2022-10-01T22:55:19.832Z,17.42
2022-10-01T22:58:05.160Z,17.43
2022-10-01T23:00:44.378Z,17.43
2022-10-01T23:03:20.010Z,17.40
2022-10-01T23:06:20.305Z,17.40
2022-10-01T23:08:54.854Z,17.39
2022-10-01T23:11:45.913Z,17.40
2022-10-01T23:14:23.798Z,17.41
2022-10-01T23:17:19.669Z,17.37
2022-10-01T23:20:26.812Z,17.33
2022-10-01T23:23:29.861Z,17.30
2022-10-01T23:26:24.228Z,17.28
2022-10-01T23:28:58.572Z,17.27
2022-10-01T23:31:57.421Z,17.28
2022-10-01T23:34:50.775Z,17.28
2022-10-01T23:37:58.260Z,17.30
2022-10-01T23:40:57.971Z,17.31
2022-10-01T23:43:31.628Z,17.25
2022-10-01T23:46:11.537Z,17.23
2022-10-01T23:48:46.427Z,17.20
2022-10-01T23:51:21.686Z,17.19
2022-10-01T23:54:04.095Z,17.18
2022-10-01T23:56:49.180Z,17.17
2022-10-01T23:59:32.398Z,17.16
